Time;durP1;ratioP1;P1;durP2;ratioP2;P2;SDS_P1;SDS_P2;PMS_P1;PMS_P2;Temp;Humidity;BMP_temperature;BMP_pressure;BME280_temperature;BME280_humidity;BME280_pressure;Samples;Min_cycle;Max_cycle;Signal;HPM_P1;HPM_P2
2023/07/29 00:00:55;;;;;;;1.08;1.00;;;;;;;;;;5020664;28;20512;-63
2023/07/29 00:03:21;;;;;;;1.67;1.58;;;;;;;;;;5015831;28;20045;-63
2023/07/29 00:05:48;;;;;;;1.70;1.60;;;;;;;;;;5014084;28;20045;-63
2023/07/29 00:08:14;;;;;;;1.55;1.45;;;;;;;;;;5016341;28;20164;-63
2023/07/29 00:10:40;;;;;;;1.67;1.58;;;;;;;;;;5017446;28;20045;-63
2023/07/29 00:13:06;;;;;;;1.58;1.48;;;;;;;;;;5012200;28;20054;-63
2023/07/29 00:15:32;;;;;;;1.60;1.50;;;;;;;;;;5018774;28;20128;-63
2023/07/29 00:17:58;;;;;;;1.63;1.52;;;;;;;;;;5005892;28;20046;-63
2023/07/29 00:20:24;;;;;;;1.40;1.30;;;;;;;;;;5019517;28;20830;-64
2023/07/29 00:22:52;;;;;;;1.30;1.13;;;;;;;;;;5016474;28;20049;-63
2023/07/29 00:25:19;;;;;;;0.95;0.93;;;;;;;;;;5017625;28;20081;-63
2023/07/29 00:27:45;;;;;;;2.20;1.58;;;;;;;;;;5017618;28;20134;-63
2023/07/29 00:30:11;;;;;;;1.40;1.30;;;;;;;;;;5015000;28;20046;-63
2023/07/29 00:32:37;;;;;;;2.80;1.35;;;;;;;;;;5011642;28;20125;-63
2023/07/29 00:35:03;;;;;;;1.90;1.80;;;;;;;;;;5013563;28;20054;-63
2023/07/29 00:37:30;;;;;;;1.80;1.70;;;;;;;;;;5016855;28;20045;-63
2023/07/29 00:39:56;;;;;;;1.70;1.60;;;;;;;;;;5023204;28;20045;-63
2023/07/29 00:42:22;;;;;;;1.75;1.65;;;;;;;;;;5016604;28;20041;-63
2023/07/29 00:44:48;;;;;;;1.77;1.67;;;;;;;;;;5021323;28;20767;-63
2023/07/29 00:47:15;;;;;;;1.50;1.40;;;;;;;;;;5018273;28;20132;-63
2023/07/29 00:49:42;;;;;;;1.38;1.27;;;;;;;;;;5017854;28;20063;-63
2023/07/29 00:52:11;;;;;;;1.25;1.17;;;;;;;;;;5014509;28;20088;-63
2023/07/29 00:54:37;;;;;;;1.40;1.40;;;;;;;;;;5020068;28;20049;-64
2023/07/29 00:57:03;;;;;;;1.02;1.00;;;;;;;;;;5016704;28;20135;-64
2023/07/29 00:59:30;;;;;;;1.25;1.10;;;;;;;;;;5012552;28;20124;-63
2023/07/29 01:01:56;;;;;;;1.48;1.38;;;;;;;;;;5016730;28;20053;-63
2023/07/29 01:04:22;;;;;;;1.40;1.30;;;;;;;;;;5017028;28;20044;-63
2023/07/29 01:07:10;;;;;;;0.90;0.90;;;;;;;;;;5016814;28;20045;-63
2023/07/29 01:09:45;;;;;;;1.42;1.33;;;;;;;;;;5014108;28;20507;-63
2023/07/29 01:12:15;;;;;;;1.15;1.13;;;;;;;;;;5017298;28;20061;-63
2023/07/29 01:14:49;;;;;;;0.85;0.85;;;;;;;;;;5016627;28;20041;-63
2023/07/29 01:17:19;;;;;;;0.93;0.93;;;;;;;;;;5014413;28;20049;-63
2023/07/29 01:19:49;;;;;;;1.15;1.13;;;;;;;;;;5015480;28;20104;-64
2023/07/29 01:22:16;;;;;;;0.98;0.98;;;;;;;;;;5020586;28;20053;-63
2023/07/29 01:24:42;;;;;;;1.23;1.13;;;;;;;;;;5018973;28;20407;-63
2023/07/29 01:27:08;;;;;;;0.90;0.90;;;;;;;;;;5009812;28;20052;-63
2023/07/29 01:29:34;;;;;;;0.80;0.80;;;;;;;;;;5012252;28;20049;-63
2023/07/29 01:32:04;;;;;;;0.90;0.90;;;;;;;;;;5015564;28;20102;-63
2023/07/29 01:34:33;;;;;;;1.05;1.00;;;;;;;;;;5011693;28;20068;-63
2023/07/29 01:37:02;;;;;;;1.00;1.00;;;;;;;;;;5019250;28;20112;-63
2023/07/29 01:39:29;;;;;;;1.38;1.27;;;;;;;;;;5018553;28;20044;-63
2023/07/29 01:41:55;;;;;;;1.70;1.60;;;;;;;;;;5015994;28;20041;-63
2023/07/29 01:44:21;;;;;;;1.02;1.02;;;;;;;;;;5011094;28;20140;-63
2023/07/29 01:46:47;;;;;;;0.98;0.98;;;;;;;;;;5019415;28;20137;-63
2023/07/29 01:49:13;;;;;;;1.50;1.40;;;;;;;;;;5020423;28;20073;-63
2023/07/29 01:51:39;;;;;;;1.70;1.20;;;;;;;;;;5017195;28;20081;-63
2023/07/29 01:54:05;;;;;;;1.13;1.02;;;;;;;;;;5014124;28;20049;-63
2023/07/29 01:56:32;;;;;;;1.20;1.20;;;;;;;;;;5018184;28;20442;-63
2023/07/29 01:58:57;;;;;;;1.13;1.00;;;;;;;;;;5017204;28;20522;-63
2023/07/29 02:01:24;;;;;;;2.80;2.60;;;;;;;;;;5013502;28;20037;-63
2023/07/29 02:03:54;;;;;;;1.90;1.80;;;;;;;;;;5017582;28;20053;-63
2023/07/29 02:06:20;;;;;;;1.45;1.35;;;;;;;;;;5016002;28;20045;-63
2023/07/29 02:08:46;;;;;;;1.20;1.13;;;;;;;;;;5014007;28;20512;-63
2023/07/29 02:11:12;;;;;;;1.30;1.20;;;;;;;;;;5020202;28;20037;-63
2023/07/29 02:13:38;;;;;;;1.35;1.25;;;;;;;;;;5019480;28;20518;-63
2023/07/29 02:16:05;;;;;;;1.45;1.35;;;;;;;;;;5016328;28;20045;-63
2023/07/29 02:18:31;;;;;;;1.45;1.35;;;;;;;;;;5023060;28;20083;-63
2023/07/29 02:20:57;;;;;;;1.58;1.48;;;;;;;;;;5017320;28;20041;-63
2023/07/29 02:23:23;;;;;;;1.42;1.33;;;;;;;;;;5021863;28;20352;-63
2023/07/29 02:25:48;;;;;;;1.50;1.40;;;;;;;;;;5022799;28;20046;-63
2023/07/29 02:28:15;;;;;;;1.55;1.45;;;;;;;;;;5019306;28;20612;-63
2023/07/29 02:30:41;;;;;;;1.88;1.77;;;;;;;;;;5019715;28;20033;-63
2023/07/29 02:33:07;;;;;;;1.80;1.70;;;;;;;;;;5023024;28;20454;-63
2023/07/29 02:35:33;;;;;;;2.30;2.20;;;;;;;;;;5019956;28;20179;-63
2023/07/29 02:37:59;;;;;;;2.28;2.10;;;;;;;;;;5016108;28;20103;-63
2023/07/29 02:40:26;;;;;;;1.88;1.77;;;;;;;;;;5021661;28;20037;-63
2023/07/29 02:42:52;;;;;;;1.52;1.42;;;;;;;;;;5019211;28;20042;-63
2023/07/29 02:45:18;;;;;;;2.10;2.00;;;;;;;;;;5019347;28;20056;-63
2023/07/29 02:47:44;;;;;;;2.03;1.92;;;;;;;;;;5018155;28;20122;-63
2023/07/29 02:50:10;;;;;;;1.45;1.35;;;;;;;;;;5016990;28;20097;-63
2023/07/29 02:52:36;;;;;;;1.40;1.30;;;;;;;;;;5017211;28;20573;-63
2023/07/29 02:55:03;;;;;;;1.25;1.25;;;;;;;;;;5020334;28;20049;-63
2023/07/29 02:57:29;;;;;;;1.10;1.10;;;;;;;;;;5023886;28;20042;-63
2023/07/29 02:59:55;;;;;;;1.88;1.75;;;;;;;;;;5023203;28;20048;-63
2023/07/29 03:02:21;;;;;;;1.20;1.10;;;;;;;;;;5020727;28;20242;-63
2023/07/29 03:04:48;;;;;;;1.20;1.20;;;;;;;;;;5020182;28;20066;-63
2023/07/29 03:07:14;;;;;;;1.42;1.33;;;;;;;;;;5016943;28;20095;-63
2023/07/29 03:09:41;;;;;;;1.40;1.30;;;;;;;;;;5018236;28;20124;-63
2023/07/29 03:12:08;;;;;;;1.25;1.15;;;;;;;;;;5023440;28;20099;-63
2023/07/29 03:14:34;;;;;;;1.50;1.38;;;;;;;;;;5020338;28;20041;-63
2023/07/29 03:17:04;;;;;;;1.10;1.00;;;;;;;;;;5017729;28;20128;-63
2023/07/29 03:19:30;;;;;;;1.00;1.00;;;;;;;;;;5018013;28;20051;-63
2023/07/29 03:21:56;;;;;;;1.23;1.13;;;;;;;;;;5018321;28;20061;-63
2023/07/29 03:24:22;;;;;;;1.02;1.00;;;;;;;;;;5017862;28;20103;-63
2023/07/29 03:26:48;;;;;;;0.95;0.90;;;;;;;;;;5016500;28;20065;-63
2023/07/29 03:29:14;;;;;;;1.40;1.30;;;;;;;;;;5010017;28;20069;-63
2023/07/29 03:31:40;;;;;;;1.52;1.42;;;;;;;;;;5018252;28;20046;-63
2023/07/29 03:34:06;;;;;;;1.55;1.45;;;;;;;;;;5013311;28;20053;-63
2023/07/29 03:36:32;;;;;;;1.20;1.20;;;;;;;;;;5016286;28;20048;-63
2023/07/29 03:39:00;;;;;;;1.40;1.30;;;;;;;;;;5018610;28;20044;-63
2023/07/29 03:41:26;;;;;;;1.17;1.10;;;;;;;;;;5016610;28;20452;-63
2023/07/29 03:43:52;;;;;;;0.82;0.82;;;;;;;;;;5017260;28;20124;-63
2023/07/29 03:46:21;;;;;;;1.05;1.02;;;;;;;;;;5018307;28;20050;-63
2023/07/29 03:48:47;;;;;;;1.13;1.13;;;;;;;;;;5017354;28;20050;-63
2023/07/29 03:51:13;;;;;;;1.15;1.05;;;;;;;;;;5021804;28;20072;-63
2023/07/29 03:53:39;;;;;;;0.90;0.90;;;;;;;;;;5020853;28;20414;-63
2023/07/29 03:56:05;;;;;;;1.40;1.30;;;;;;;;;;5017139;28;20157;-63
2023/07/29 03:58:31;;;;;;;1.23;1.15;;;;;;;;;;5026647;28;20156;-63
2023/07/29 04:00:57;;;;;;;1.20;1.10;;;;;;;;;;5015759;28;20139;-63
2023/07/29 04:03:23;;;;;;;0.85;0.85;;;;;;;;;;5016045;28;20492;-63
2023/07/29 04:05:49;;;;;;;0.85;0.85;;;;;;;;;;5021335;28;20045;-63
2023/07/29 04:08:16;;;;;;;0.65;0.65;;;;;;;;;;5020260;28;20116;-64
2023/07/29 04:10:42;;;;;;;1.60;1.50;;;;;;;;;;5020364;28;20038;-65
2023/07/29 04:13:08;;;;;;;1.50;1.40;;;;;;;;;;5014775;28;20073;-65
2023/07/29 04:15:34;;;;;;;1.20;1.10;;;;;;;;;;5020172;28;20045;-65
2023/07/29 04:18:00;;;;;;;1.27;1.17;;;;;;;;;;5020269;28;20049;-65
2023/07/29 04:20:26;;;;;;;1.35;1.02;;;;;;;;;;5024299;28;20387;-65
2023/07/29 04:22:52;;;;;;;1.42;1.33;;;;;;;;;;5011060;28;20049;-65
2023/07/29 04:25:18;;;;;;;1.17;1.08;;;;;;;;;;5011345;28;20056;-65
2023/07/29 04:27:44;;;;;;;0.75;0.75;;;;;;;;;;5022784;28;20033;-65
2023/07/29 04:30:10;;;;;;;0.70;0.70;;;;;;;;;;5016692;28;20044;-65
2023/07/29 04:32:36;;;;;;;1.00;0.82;;;;;;;;;;5017737;28;20049;-65
2023/07/29 04:35:02;;;;;;;0.50;0.50;;;;;;;;;;5019754;28;20084;-65
2023/07/29 04:37:28;;;;;;;0.68;0.68;;;;;;;;;;5011298;28;20041;-65
2023/07/29 04:39:54;;;;;;;1.45;0.80;;;;;;;;;;5021533;28;20497;-65
2023/07/29 04:42:20;;;;;;;0.98;0.98;;;;;;;;;;5015218;28;20048;-65
2023/07/29 04:44:46;;;;;;;1.05;0.85;;;;;;;;;;5022959;28;20530;-65
2023/07/29 04:47:12;;;;;;;0.90;0.90;;;;;;;;;;5013308;28;20182;-65
2023/07/29 04:49:38;;;;;;;0.70;0.70;;;;;;;;;;5015908;28;20117;-65
2023/07/29 04:52:04;;;;;;;0.88;0.88;;;;;;;;;;5014193;28;20042;-65
2023/07/29 04:54:30;;;;;;;0.80;0.80;;;;;;;;;;5015472;28;20711;-65
2023/07/29 04:56:56;;;;;;;0.98;0.93;;;;;;;;;;5016481;28;20048;-65
2023/07/29 04:59:23;;;;;;;0.77;0.73;;;;;;;;;;5018768;28;20110;-65
2023/07/29 05:01:49;;;;;;;1.15;1.05;;;;;;;;;;5016823;28;20102;-65
2023/07/29 05:04:15;;;;;;;0.82;0.82;;;;;;;;;;5012434;28;20038;-65
2023/07/29 05:06:41;;;;;;;1.35;1.02;;;;;;;;;;5019146;28;20041;-65
2023/07/29 05:09:17;;;;;;;0.80;0.80;;;;;;;;;;5015723;28;20049;-65
2023/07/29 05:11:45;;;;;;;1.92;0.90;;;;;;;;;;5017436;28;20061;-65
2023/07/29 05:14:11;;;;;;;1.52;0.73;;;;;;;;;;5017762;28;20125;-65
2023/07/29 05:16:37;;;;;;;0.73;0.70;;;;;;;;;;5017991;28;20080;-65
2023/07/29 05:19:03;;;;;;;0.80;0.80;;;;;;;;;;5018618;28;20641;-65
2023/07/29 05:21:30;;;;;;;0.80;0.80;;;;;;;;;;5015379;28;20050;-65
2023/07/29 05:23:56;;;;;;;0.63;0.63;;;;;;;;;;5019224;28;20048;-65
2023/07/29 05:26:22;;;;;;;0.93;0.85;;;;;;;;;;5017891;28;20050;-65
2023/07/29 05:28:48;;;;;;;2.83;1.38;;;;;;;;;;5018076;28;20072;-65
2023/07/29 05:31:14;;;;;;;1.20;1.10;;;;;;;;;;5015970;28;20483;-64
2023/07/29 05:33:40;;;;;;;0.95;0.90;;;;;;;;;;5013146;28;20041;-64
2023/07/29 05:36:06;;;;;;;1.10;1.00;;;;;;;;;;5011151;28;20075;-64
2023/07/29 05:38:32;;;;;;;2.38;1.70;;;;;;;;;;5006963;28;20503;-64
2023/07/29 05:40:58;;;;;;;2.85;2.13;;;;;;;;;;5015020;28;20038;-64
2023/07/29 05:43:25;;;;;;;1.70;1.52;;;;;;;;;;5011338;28;20045;-64
2023/07/29 05:45:51;;;;;;;1.58;1.08;;;;;;;;;;5017270;28;20494;-64
2023/07/29 05:48:17;;;;;;;1.10;1.10;;;;;;;;;;5017275;28;20037;-64
2023/07/29 05:50:43;;;;;;;1.58;1.48;;;;;;;;;;5017010;28;20030;-64
2023/07/29 05:53:09;;;;;;;1.15;1.05;;;;;;;;;;5021364;28;20049;-64
2023/07/29 05:55:35;;;;;;;1.40;1.30;;;;;;;;;;5019483;28;20041;-64
2023/07/29 05:58:01;;;;;;;0.80;0.80;;;;;;;;;;5018547;28;20069;-64
2023/07/29 06:00:27;;;;;;;0.52;0.52;;;;;;;;;;5018596;28;20671;-64
2023/07/29 06:02:53;;;;;;;1.15;1.05;;;;;;;;;;5016498;28;20037;-64
2023/07/29 06:05:19;;;;;;;0.70;0.70;;;;;;;;;;5015764;28;20037;-64
2023/07/29 06:07:47;;;;;;;0.90;0.68;;;;;;;;;;5017345;28;20144;-64
2023/07/29 06:10:13;;;;;;;0.90;0.90;;;;;;;;;;5018262;28;20045;-64
2023/07/29 06:12:40;;;;;;;1.13;1.02;;;;;;;;;;5020566;28;20056;-64
2023/07/29 06:15:06;;;;;;;0.80;0.73;;;;;;;;;;5016668;28;20410;-64
2023/07/29 06:17:32;;;;;;;0.70;0.60;;;;;;;;;;5016207;28;20034;-64
2023/07/29 06:19:58;;;;;;;1.42;0.98;;;;;;;;;;5018222;28;20037;-64
2023/07/29 06:22:24;;;;;;;0.80;0.70;;;;;;;;;;5015118;28;20737;-64
2023/07/29 06:24:50;;;;;;;1.83;0.90;;;;;;;;;;5017824;28;20042;-65
2023/07/29 06:27:16;;;;;;;2.95;2.28;;;;;;;;;;5014372;28;20049;-64
2023/07/29 06:29:42;;;;;;;2.00;1.65;;;;;;;;;;5015726;28;20494;-64
2023/07/29 06:32:08;;;;;;;2.90;1.77;;;;;;;;;;5013311;28;20083;-64
2023/07/29 06:34:34;;;;;;;1.25;1.15;;;;;;;;;;5015605;28;20554;-64
2023/07/29 06:37:00;;;;;;;2.63;1.40;;;;;;;;;;5018085;28;20044;-64
2023/07/29 06:39:26;;;;;;;3.17;1.65;;;;;;;;;;5018733;28;20042;-64
2023/07/29 06:41:52;;;;;;;5.43;2.63;;;;;;;;;;5016878;28;20407;-64
2023/07/29 06:44:18;;;;;;;3.70;2.00;;;;;;;;;;5021886;28;20033;-64
2023/07/29 06:46:44;;;;;;;3.33;1.73;;;;;;;;;;5019233;28;20045;-64
2023/07/29 06:49:10;;;;;;;1.35;1.25;;;;;;;;;;5016513;28;20084;-64
2023/07/29 06:51:36;;;;;;;1.80;1.70;;;;;;;;;;5015434;28;20034;-64
2023/07/29 06:54:03;;;;;;;1.08;0.98;;;;;;;;;;5016762;28;20046;-64
2023/07/29 06:56:29;;;;;;;1.48;1.20;;;;;;;;;;5019100;28;20125;-65
2023/07/29 06:58:55;;;;;;;2.58;2.38;;;;;;;;;;5016013;28;20050;-65
2023/07/29 07:01:21;;;;;;;2.95;2.28;;;;;;;;;;5015951;28;20041;-64
2023/07/29 07:03:47;;;;;;;2.80;1.90;;;;;;;;;;5019203;28;20044;-64
2023/07/29 07:06:13;;;;;;;10.45;2.40;;;;;;;;;;5017568;28;20045;-64
2023/07/29 07:08:39;;;;;;;4.20;2.55;;;;;;;;;;5011685;28;20057;-64
2023/07/29 07:11:05;;;;;;;2.85;1.48;;;;;;;;;;5017435;28;20103;-64
2023/07/29 07:13:31;;;;;;;2.17;1.60;;;;;;;;;;5014620;28;20045;-65
2023/07/29 07:15:57;;;;;;;4.53;2.88;;;;;;;;;;5023159;28;20403;-65
2023/07/29 07:18:23;;;;;;;3.53;1.67;;;;;;;;;;5018622;28;20052;-64
2023/07/29 07:20:50;;;;;;;3.30;1.90;;;;;;;;;;5017120;28;20033;-64
2023/07/29 07:23:16;;;;;;;3.25;1.67;;;;;;;;;;5021126;28;20072;-64
2023/07/29 07:25:42;;;;;;;3.10;1.45;;;;;;;;;;5012260;28;20042;-64
2023/07/29 07:28:09;;;;;;;3.60;1.63;;;;;;;;;;5017371;28;20504;-64
2023/07/29 07:30:35;;;;;;;2.15;1.95;;;;;;;;;;5018266;28;20072;-65
2023/07/29 07:33:01;;;;;;;3.40;1.75;;;;;;;;;;5023615;28;20076;-64
2023/07/29 07:35:27;;;;;;;4.57;1.63;;;;;;;;;;5017730;28;20565;-64
2023/07/29 07:37:53;;;;;;;1.80;1.40;;;;;;;;;;5020215;28;20034;-64
2023/07/29 07:40:19;;;;;;;2.70;1.55;;;;;;;;;;5013734;28;20120;-60
2023/07/29 07:42:45;;;;;;;2.92;1.15;;;;;;;;;;5022302;28;20222;-61
2023/07/29 07:45:11;;;;;;;3.17;1.30;;;;;;;;;;5007275;28;20060;-62
2023/07/29 07:47:37;;;;;;;1.67;1.10;;;;;;;;;;5006356;28;20053;-64
2023/07/29 07:50:03;;;;;;;3.38;1.67;;;;;;;;;;5006984;28;20053;-59
2023/07/29 07:52:29;;;;;;;1.63;1.30;;;;;;;;;;5007159;28;20057;-60
2023/07/29 07:54:55;;;;;;;1.73;1.33;;;;;;;;;;5006715;28;20052;-64
2023/07/29 07:57:24;;;;;;;2.38;1.40;;;;;;;;;;5014144;28;20056;-64
2023/07/29 07:59:52;;;;;;;3.17;1.60;;;;;;;;;;5016550;28;20045;-63
2023/07/29 08:02:18;;;;;;;5.05;1.50;;;;;;;;;;5009796;28;20054;-63
2023/07/29 08:04:44;;;;;;;1.70;1.58;;;;;;;;;;5007188;28;20046;-63
2023/07/29 08:07:10;;;;;;;4.97;1.92;;;;;;;;;;5006672;28;20041;-64
2023/07/29 08:09:36;;;;;;;5.32;2.00;;;;;;;;;;5006949;28;20396;-63
2023/07/29 08:12:02;;;;;;;3.30;2.00;;;;;;;;;;5025200;28;20504;-64
2023/07/29 08:14:28;;;;;;;1.75;1.60;;;;;;;;;;5025037;28;20112;-63
2023/07/29 08:16:54;;;;;;;3.10;1.40;;;;;;;;;;5023773;28;20079;-65
2023/07/29 08:19:20;;;;;;;2.78;2.15;;;;;;;;;;5018935;28;20125;-65
2023/07/29 08:21:46;;;;;;;7.10;2.55;;;;;;;;;;5017298;28;20390;-65
2023/07/29 08:24:12;;;;;;;2.47;1.52;;;;;;;;;;5024461;28;20037;-65
2023/07/29 08:26:38;;;;;;;1.10;1.02;;;;;;;;;;5025131;28;20056;-64
2023/07/29 08:29:04;;;;;;;1.50;1.40;;;;;;;;;;5024227;28;20037;-65
2023/07/29 08:31:33;;;;;;;2.65;1.42;;;;;;;;;;5009716;28;20092;-65
2023/07/29 08:33:59;;;;;;;1.20;1.10;;;;;;;;;;5011281;28;20088;-65
2023/07/29 08:36:25;;;;;;;2.75;1.60;;;;;;;;;;5020760;28;20057;-65
2023/07/29 08:38:51;;;;;;;2.63;1.45;;;;;;;;;;5010721;28;20049;-65
2023/07/29 08:41:21;;;;;;;5.53;1.90;;;;;;;;;;5015359;28;20076;-65
2023/07/29 08:44:02;;;;;;;1.58;1.30;;;;;;;;;;5011902;28;20074;-65
2023/07/29 08:46:29;;;;;;;4.13;1.80;;;;;;;;;;5023995;28;20042;-64
2023/07/29 08:48:55;;;;;;;2.65;1.33;;;;;;;;;;5024400;28;20046;-64
2023/07/29 08:51:22;;;;;;;3.05;1.50;;;;;;;;;;5014194;28;20084;-64
2023/07/29 08:53:48;;;;;;;4.18;1.75;;;;;;;;;;5012850;28;20053;-65
2023/07/29 08:56:14;;;;;;;2.33;1.25;;;;;;;;;;5011850;28;20060;-65
2023/07/29 08:58:42;;;;;;;1.60;1.45;;;;;;;;;;5013498;28;20054;-65
2023/07/29 09:01:08;;;;;;;1.67;1.20;;;;;;;;;;5022572;28;20045;-65
2023/07/29 09:03:34;;;;;;;2.17;1.33;;;;;;;;;;5018665;28;20044;-65
2023/07/29 09:06:01;;;;;;;1.67;0.98;;;;;;;;;;5011836;28;20047;-65
2023/07/29 09:08:27;;;;;;;1.33;1.20;;;;;;;;;;5018352;28;20045;-65
2023/07/29 09:10:55;;;;;;;0.63;0.60;;;;;;;;;;5016034;28;20484;-65
2023/07/29 09:13:21;;;;;;;1.40;1.00;;;;;;;;;;5015638;28;20034;-65
2023/07/29 09:15:47;;;;;;;5.03;1.35;;;;;;;;;;5019501;28;20045;-65
2023/07/29 09:18:17;;;;;;;1.48;1.13;;;;;;;;;;5016940;28;20823;-65
2023/07/29 09:20:43;;;;;;;1.25;1.15;;;;;;;;;;5018232;28;20071;-65
2023/07/29 09:23:10;;;;;;;0.90;0.80;;;;;;;;;;5015559;28;20048;-65
2023/07/29 09:25:36;;;;;;;2.40;0.70;;;;;;;;;;5016912;28;20093;-65
2023/07/29 09:28:07;;;;;;;2.50;1.10;;;;;;;;;;5012326;28;20049;-65
2023/07/29 09:30:33;;;;;;;2.08;1.05;;;;;;;;;;5015258;28;20431;-65
2023/07/29 09:32:59;;;;;;;4.97;1.08;;;;;;;;;;5017462;28;20044;-65
2023/07/29 09:35:28;;;;;;;1.45;0.90;;;;;;;;;;5014936;28;20033;-65
2023/07/29 09:37:54;;;;;;;2.83;0.93;;;;;;;;;;5021999;28;20038;-65
2023/07/29 09:40:20;;;;;;;1.38;1.02;;;;;;;;;;5015423;28;20042;-65
2023/07/29 09:42:53;;;;;;;1.05;0.93;;;;;;;;;;5011728;28;20068;-65
2023/07/29 09:45:20;;;;;;;2.38;0.60;;;;;;;;;;5016285;28;20048;-65
2023/07/29 09:47:47;;;;;;;3.22;1.05;;;;;;;;;;5017683;28;20137;-65
2023/07/29 09:50:13;;;;;;;1.75;0.95;;;;;;;;;;5016919;28;20061;-65
2023/07/29 09:52:39;;;;;;;0.47;0.47;;;;;;;;;;5013625;28;20556;-65
2023/07/29 09:55:06;;;;;;;1.65;0.90;;;;;;;;;;5014149;28;20072;-64
2023/07/29 09:57:32;;;;;;;1.80;1.00;;;;;;;;;;5017656;28;20515;-64
2023/07/29 09:59:58;;;;;;;1.73;0.98;;;;;;;;;;5023314;28;20495;-65
2023/07/29 10:02:28;;;;;;;2.35;1.00;;;;;;;;;;5015670;28;20081;-65
2023/07/29 10:04:55;;;;;;;2.97;1.20;;;;;;;;;;5013062;28;20097;-65
2023/07/29 10:07:21;;;;;;;1.58;1.00;;;;;;;;;;5002499;28;20125;-65
2023/07/29 10:09:48;;;;;;;1.83;1.05;;;;;;;;;;5008787;28;20056;-65
2023/07/29 10:12:14;;;;;;;2.28;1.05;;;;;;;;;;5011939;28;20042;-65
2023/07/29 10:14:41;;;;;;;2.10;1.00;;;;;;;;;;5013733;28;20046;-65
2023/07/29 10:17:07;;;;;;;1.48;1.10;;;;;;;;;;5007531;28;20102;-65
2023/07/29 10:19:34;;;;;;;1.08;0.80;;;;;;;;;;5017654;28;20052;-65
2023/07/29 10:22:01;;;;;;;1.70;0.95;;;;;;;;;;5011205;28;20056;-62
2023/07/29 10:24:30;;;;;;;1.15;0.70;;;;;;;;;;5018059;28;20041;-65
2023/07/29 10:27:00;;;;;;;2.92;0.68;;;;;;;;;;5019580;28;20041;-64
2023/07/29 10:29:35;;;;;;;3.08;1.05;;;;;;;;;;5017308;28;20533;-64
2023/07/29 10:32:03;;;;;;;2.35;1.13;;;;;;;;;;5015661;28;20042;-64
2023/07/29 10:34:30;;;;;;;1.27;0.70;;;;;;;;;;5018045;28;20041;-65
2023/07/29 10:36:56;;;;;;;1.00;0.80;;;;;;;;;;5021355;28;20045;-65
2023/07/29 10:39:24;;;;;;;0.77;0.70;;;;;;;;;;5016791;28;20758;-65
2023/07/29 10:41:56;;;;;;;3.90;1.05;;;;;;;;;;5014322;28;20048;-65
2023/07/29 10:44:51;;;;;;;1.85;0.98;;;;;;;;;;5024386;28;20041;-65
2023/07/29 10:47:29;;;;;;;1.52;0.80;;;;;;;;;;5008780;28;20050;-64
2023/07/29 10:49:59;;;;;;;1.67;1.00;;;;;;;;;;5019236;28;20513;-64
2023/07/29 10:52:31;;;;;;;1.95;1.05;;;;;;;;;;5015105;28;20124;-64
2023/07/29 10:55:00;;;;;;;1.58;0.70;;;;;;;;;;5025693;28;20053;-65
2023/07/29 10:57:40;;;;;;;1.60;0.82;;;;;;;;;;5023110;28;20053;-66
2023/07/29 11:00:07;;;;;;;1.00;0.80;;;;;;;;;;5017483;28;20054;-65
2023/07/29 11:02:35;;;;;;;2.13;0.90;;;;;;;;;;5017294;28;20050;-64
2023/07/29 11:05:05;;;;;;;0.85;0.82;;;;;;;;;;5018311;28;20072;-64
2023/07/29 11:07:31;;;;;;;0.90;0.60;;;;;;;;;;5021115;28;20171;-64
2023/07/29 11:10:01;;;;;;;2.55;0.85;;;;;;;;;;5022820;28;20108;-64
2023/07/29 11:12:45;;;;;;;4.80;1.50;;;;;;;;;;5019685;28;20463;-64
2023/07/29 11:15:12;;;;;;;3.70;1.00;;;;;;;;;;5023761;28;20485;-64
2023/07/29 11:17:49;;;;;;;0.90;0.63;;;;;;;;;;5023059;28;20081;-64
2023/07/29 11:20:15;;;;;;;1.15;0.90;;;;;;;;;;5022904;28;20459;-64
2023/07/29 11:22:42;;;;;;;3.40;1.52;;;;;;;;;;5022102;28;20288;-64
2023/07/29 11:25:09;;;;;;;3.15;0.95;;;;;;;;;;5022134;28;20073;-64
2023/07/29 11:27:35;;;;;;;2.13;1.30;;;;;;;;;;5023734;28;20120;-64
2023/07/29 11:30:02;;;;;;;1.83;1.27;;;;;;;;;;5024317;28;20073;-64
2023/07/29 11:32:29;;;;;;;3.63;1.20;;;;;;;;;;5024589;28;20219;-65
2023/07/29 11:34:55;;;;;;;2.00;1.23;;;;;;;;;;5024810;28;20041;-65
2023/07/29 11:37:21;;;;;;;3.42;1.20;;;;;;;;;;5024023;28;20041;-65
2023/07/29 11:39:47;;;;;;;2.78;0.98;;;;;;;;;;5023770;28;20037;-64
2023/07/29 11:42:14;;;;;;;1.67;1.10;;;;;;;;;;5024411;28;20047;-64
2023/07/29 11:44:41;;;;;;;1.40;1.02;;;;;;;;;;5025270;28;20037;-65
2023/07/29 11:47:10;;;;;;;1.55;0.90;;;;;;;;;;5025139;28;20045;-65
2023/07/29 11:49:36;;;;;;;4.60;2.03;;;;;;;;;;5025775;28;20053;-65
2023/07/29 11:52:03;;;;;;;1.83;1.17;;;;;;;;;;5025570;28;20360;-64
2023/07/29 11:54:30;;;;;;;1.67;1.13;;;;;;;;;;5025059;28;20443;-64
2023/07/29 11:56:56;;;;;;;1.70;1.10;;;;;;;;;;5026184;28;20049;-64
2023/07/29 11:59:22;;;;;;;1.50;0.98;;;;;;;;;;5025538;28;20081;-65
2023/07/29 12:01:48;;;;;;;0.82;0.63;;;;;;;;;;5024985;28;20548;-65
2023/07/29 12:04:14;;;;;;;1.15;1.05;;;;;;;;;;5025412;28;20071;-65
2023/07/29 12:06:40;;;;;;;1.50;0.60;;;;;;;;;;5025777;28;20636;-65
2023/07/29 12:09:07;;;;;;;1.58;0.75;;;;;;;;;;5025431;28;20045;-64
2023/07/29 12:11:33;;;;;;;1.33;1.10;;;;;;;;;;5025874;28;20045;-64
2023/07/29 12:14:03;;;;;;;0.80;0.80;;;;;;;;;;5023232;28;20049;-64
2023/07/29 12:16:34;;;;;;;1.58;0.70;;;;;;;;;;5025423;28;20052;-64
2023/07/29 12:19:01;;;;;;;1.20;0.82;;;;;;;;;;5025582;28;20053;-64
2023/07/29 12:21:27;;;;;;;1.27;0.95;;;;;;;;;;5024952;28;20076;-65
2023/07/29 12:23:53;;;;;;;1.50;0.73;;;;;;;;;;5025215;28;20053;-64
2023/07/29 12:26:19;;;;;;;1.95;0.80;;;;;;;;;;5024547;28;20415;-64
2023/07/29 12:28:47;;;;;;;0.80;0.80;;;;;;;;;;5024655;28;20041;-65
2023/07/29 12:31:13;;;;;;;0.73;0.73;;;;;;;;;;5025462;28;20534;-64
2023/07/29 12:33:39;;;;;;;2.70;1.33;;;;;;;;;;5024942;28;20045;-64
2023/07/29 12:36:05;;;;;;;1.42;1.33;;;;;;;;;;5024103;28;20045;-64
2023/07/29 12:38:31;;;;;;;2.03;1.38;;;;;;;;;;5024979;28;20126;-65
2023/07/29 12:40:57;;;;;;;1.50;1.17;;;;;;;;;;5025090;28;20053;-64
2023/07/29 12:43:23;;;;;;;1.50;1.08;;;;;;;;;;5023705;28;20120;-64
2023/07/29 12:45:53;;;;;;;2.35;1.00;;;;;;;;;;5023254;28;20149;-64
2023/07/29 12:48:19;;;;;;;0.70;0.60;;;;;;;;;;5024638;28;20041;-64
2023/07/29 12:50:45;;;;;;;0.95;0.80;;;;;;;;;;5024343;28;20152;-64
2023/07/29 12:53:11;;;;;;;1.02;0.80;;;;;;;;;;5024409;28;20140;-65
2023/07/29 12:55:37;;;;;;;0.95;0.90;;;;;;;;;;5024827;28;20060;-64
2023/07/29 12:58:03;;;;;;;1.20;1.00;;;;;;;;;;5023905;28;20598;-64
2023/07/29 13:00:30;;;;;;;1.63;0.75;;;;;;;;;;5024506;28;20422;-64
2023/07/29 13:02:56;;;;;;;1.27;0.80;;;;;;;;;;5024700;28;20073;-64
2023/07/29 13:05:22;;;;;;;4.13;1.48;;;;;;;;;;5023674;28;20087;-64
2023/07/29 13:07:48;;;;;;;1.55;0.90;;;;;;;;;;5024573;28;20171;-64
2023/07/29 13:10:14;;;;;;;3.97;0.80;;;;;;;;;;5023769;28;20481;-64
2023/07/29 13:12:40;;;;;;;1.65;1.13;;;;;;;;;;5024628;28;20037;-64
2023/07/29 13:15:07;;;;;;;1.25;1.00;;;;;;;;;;5023895;28;20048;-64
2023/07/29 13:17:33;;;;;;;1.38;0.90;;;;;;;;;;5023814;28;20063;-64
2023/07/29 13:19:59;;;;;;;0.93;0.85;;;;;;;;;;5024550;28;20478;-64
2023/07/29 13:22:25;;;;;;;1.80;1.00;;;;;;;;;;5024305;28;20136;-64
2023/07/29 13:24:51;;;;;;;3.75;1.30;;;;;;;;;;5023581;28;20565;-64
2023/07/29 13:27:17;;;;;;;4.90;1.13;;;;;;;;;;5023970;28;20049;-64
2023/07/29 13:29:44;;;;;;;1.88;1.20;;;;;;;;;;5024422;28;20037;-64
2023/07/29 13:32:10;;;;;;;2.60;1.38;;;;;;;;;;5023435;28;20122;-64
2023/07/29 13:34:36;;;;;;;2.45;1.20;;;;;;;;;;5024570;28;20041;-64
2023/07/29 13:37:02;;;;;;;0.82;0.80;;;;;;;;;;5024156;28;20051;-64
2023/07/29 13:39:28;;;;;;;0.90;0.82;;;;;;;;;;5024202;28;20037;-64
2023/07/29 13:41:54;;;;;;;3.97;1.13;;;;;;;;;;5024058;28;20125;-65
2023/07/29 13:44:20;;;;;;;2.25;1.27;;;;;;;;;;5023734;28;20439;-65
2023/07/29 13:46:46;;;;;;;1.60;1.02;;;;;;;;;;5023584;28;20419;-65
2023/07/29 13:49:12;;;;;;;0.88;0.88;;;;;;;;;;5024175;28;20038;-64
2023/07/29 13:51:38;;;;;;;1.10;0.50;;;;;;;;;;5024454;28;20034;-64
2023/07/29 13:54:04;;;;;;;1.15;1.00;;;;;;;;;;5023382;28;20555;-64
2023/07/29 13:56:30;;;;;;;1.73;1.20;;;;;;;;;;5024042;28;20427;-64
2023/07/29 13:58:56;;;;;;;1.92;0.88;;;;;;;;;;5017109;28;20053;-64
2023/07/29 14:01:22;;;;;;;1.83;1.00;;;;;;;;;;5002041;28;20238;-64
2023/07/29 14:03:49;;;;;;;1.10;0.82;;;;;;;;;;5004369;28;20575;-63
2023/07/29 14:06:15;;;;;;;1.23;1.00;;;;;;;;;;5003801;28;20077;-63
2023/07/29 14:08:41;;;;;;;1.42;1.02;;;;;;;;;;5008588;28;20069;-62
2023/07/29 14:11:08;;;;;;;1.90;0.90;;;;;;;;;;5007664;28;20041;-62
2023/07/29 14:13:34;;;;;;;1.30;1.02;;;;;;;;;;5010146;28;20092;-63
2023/07/29 14:16:03;;;;;;;0.88;0.60;;;;;;;;;;5024745;28;20072;-63
2023/07/29 14:18:29;;;;;;;1.92;0.90;;;;;;;;;;5016859;28;20037;-64
2023/07/29 14:20:55;;;;;;;1.30;0.73;;;;;;;;;;5012752;28;20045;-64
2023/07/29 14:23:21;;;;;;;1.52;1.00;;;;;;;;;;5018734;28;20104;-64
2023/07/29 14:25:47;;;;;;;1.45;0.82;;;;;;;;;;5021553;28;20119;-64
2023/07/29 14:28:14;;;;;;;1.45;1.00;;;;;;;;;;5018762;28;20042;-64
2023/07/29 14:30:41;;;;;;;2.00;1.15;;;;;;;;;;5007709;28;20091;-64
2023/07/29 14:33:07;;;;;;;1.35;0.90;;;;;;;;;;5016598;28;20487;-63
2023/07/29 14:35:33;;;;;;;3.13;1.48;;;;;;;;;;5023434;28;20148;-63
2023/07/29 14:37:59;;;;;;;2.28;1.50;;;;;;;;;;5026059;28;20050;-63
2023/07/29 14:40:25;;;;;;;3.05;1.35;;;;;;;;;;5024620;28;20725;-63